sensor_id;sensor_type;location;lat;lon;timestamp;pressure;altitude;pressure_sealevel;temperature
62611;BMP280;48683;48.084;17.272;2023-07-02T00:01:29;99388.66;;;22.24
62611;BMP280;48683;48.084;17.272;2023-07-02T00:03:55;99393.16;;;22.27
62611;BMP280;48683;48.084;17.272;2023-07-02T00:06:20;99384.38;;;22.17
62611;BMP280;48683;48.084;17.272;2023-07-02T00:08:45;99384.19;;;22.27
62611;BMP280;48683;48.084;17.272;2023-07-02T00:11:11;99393.59;;;22.20
62611;BMP280;48683;48.084;17.272;2023-07-02T00:13:38;99380.88;;;22.17
62611;BMP280;48683;48.084;17.272;2023-07-02T00:16:04;99380.91;;;22.22
62611;BMP280;48683;48.084;17.272;2023-07-02T00:18:29;99385.09;;;22.18
62611;BMP280;48683;48.084;17.272;2023-07-02T00:21:00;99386.88;;;22.21
62611;BMP280;48683;48.084;17.272;2023-07-02T00:23:25;99383.84;;;22.13
62611;BMP280;48683;48.084;17.272;2023-07-02T00:25:51;99384.06;;;22.10
62611;BMP280;48683;48.084;17.272;2023-07-02T00:28:16;99389.78;;;22.12
62611;BMP280;48683;48.084;17.272;2023-07-02T00:30:42;99382.59;;;22.14
62611;BMP280;48683;48.084;17.272;2023-07-02T00:33:08;99383.25;;;22.04
62611;BMP280;48683;48.084;17.272;2023-07-02T00:35:33;99387.25;;;22.08
62611;BMP280;48683;48.084;17.272;2023-07-02T00:37:58;99377.78;;;22.04
62611;BMP280;48683;48.084;17.272;2023-07-02T00:40:24;99383.31;;;22.09
62611;BMP280;48683;48.084;17.272;2023-07-02T00:42:49;99379.28;;;22.05
62611;BMP280;48683;48.084;17.272;2023-07-02T00:45:14;99378.84;;;22.12
62611;BMP280;48683;48.084;17.272;2023-07-02T00:47:40;99385.53;;;22.11
62611;BMP280;48683;48.084;17.272;2023-07-02T00:50:05;99380.03;;;22.05
62611;BMP280;48683;48.084;17.272;2023-07-02T00:52:31;99385.28;;;22.09
62611;BMP280;48683;48.084;17.272;2023-07-02T00:54:56;99384.47;;;22.03
62611;BMP280;48683;48.084;17.272;2023-07-02T00:57:22;99391.66;;;22.00
62611;BMP280;48683;48.084;17.272;2023-07-02T00:59:47;99386.94;;;22.01
62611;BMP280;48683;48.084;17.272;2023-07-02T01:02:13;99393.16;;;22.01
62611;BMP280;48683;48.084;17.272;2023-07-02T01:04:38;99391.72;;;22.06
62611;BMP280;48683;48.084;17.272;2023-07-02T01:07:04;99390.34;;;21.96
62611;BMP280;48683;48.084;17.272;2023-07-02T01:09:34;99391.13;;;21.96
62611;BMP280;48683;48.084;17.272;2023-07-02T01:12:03;99396.66;;;22.02
62611;BMP280;48683;48.084;17.272;2023-07-02T01:14:36;99387.75;;;22.07
62611;BMP280;48683;48.084;17.272;2023-07-02T01:17:03;99391.13;;;21.96
62611;BMP280;48683;48.084;17.272;2023-07-02T01:22:10;99391.53;;;21.89
62611;BMP280;48683;48.084;17.272;2023-07-02T01:24:38;99390.69;;;21.83
62611;BMP280;48683;48.084;17.272;2023-07-02T01:27:04;99393.72;;;21.85
62611;BMP280;48683;48.084;17.272;2023-07-02T01:29:30;99387.16;;;21.77
62611;BMP280;48683;48.084;17.272;2023-07-02T01:31:56;99397.66;;;21.84
62611;BMP280;48683;48.084;17.272;2023-07-02T01:34:22;99397.63;;;21.78
62611;BMP280;48683;48.084;17.272;2023-07-02T01:36:47;99389.34;;;21.73
62611;BMP280;48683;48.084;17.272;2023-07-02T01:39:13;99389.78;;;21.66
62611;BMP280;48683;48.084;17.272;2023-07-02T01:41:52;99395.03;;;21.69
62611;BMP280;48683;48.084;17.272;2023-07-02T01:44:18;99387.31;;;21.68
62611;BMP280;48683;48.084;17.272;2023-07-02T01:46:44;99393.53;;;21.68
62611;BMP280;48683;48.084;17.272;2023-07-02T01:49:10;99392.78;;;21.68
62611;BMP280;48683;48.084;17.272;2023-07-02T01:51:35;99391.47;;;21.63
62611;BMP280;48683;48.084;17.272;2023-07-02T01:54:01;99388.56;;;21.67
62611;BMP280;48683;48.084;17.272;2023-07-02T01:56:26;99392.44;;;21.60
62611;BMP280;48683;48.084;17.272;2023-07-02T01:58:53;99393.88;;;21.56
62611;BMP280;48683;48.084;17.272;2023-07-02T02:01:18;99381.19;;;21.53
62611;BMP280;48683;48.084;17.272;2023-07-02T02:03:43;99392.66;;;21.57
62611;BMP280;48683;48.084;17.272;2023-07-02T02:06:09;99389.66;;;21.55
62611;BMP280;48683;48.084;17.272;2023-07-02T02:08:34;99394.41;;;21.60
62611;BMP280;48683;48.084;17.272;2023-07-02T02:10:59;99391.88;;;21.56
62611;BMP280;48683;48.084;17.272;2023-07-02T02:13:26;99391.34;;;21.52
62611;BMP280;48683;48.084;17.272;2023-07-02T02:15:51;99404.06;;;21.55
62611;BMP280;48683;48.084;17.272;2023-07-02T02:18:16;99399.75;;;21.49
62611;BMP280;48683;48.084;17.272;2023-07-02T02:20:42;99400.72;;;21.46
62611;BMP280;48683;48.084;17.272;2023-07-02T02:23:07;99401.47;;;21.46
62611;BMP280;48683;48.084;17.272;2023-07-02T02:25:33;99396.97;;;21.43
62611;BMP280;48683;48.084;17.272;2023-07-02T02:27:58;99399.69;;;21.43
62611;BMP280;48683;48.084;17.272;2023-07-02T02:30:23;99399.91;;;21.40
62611;BMP280;48683;48.084;17.272;2023-07-02T02:32:49;99394.56;;;21.30
62611;BMP280;48683;48.084;17.272;2023-07-02T02:35:14;99395.91;;;21.41
62611;BMP280;48683;48.084;17.272;2023-07-02T02:37:40;99393.91;;;21.36
62611;BMP280;48683;48.084;17.272;2023-07-02T02:40:07;99401.25;;;21.29
62611;BMP280;48683;48.084;17.272;2023-07-02T02:42:34;99402.47;;;21.28
62611;BMP280;48683;48.084;17.272;2023-07-02T02:44:59;99396.34;;;21.34
62611;BMP280;48683;48.084;17.272;2023-07-02T02:47:24;99396.75;;;21.26
62611;BMP280;48683;48.084;17.272;2023-07-02T02:49:50;99394.22;;;21.23
62611;BMP280;48683;48.084;17.272;2023-07-02T02:52:15;99398.72;;;21.26
62611;BMP280;48683;48.084;17.272;2023-07-02T02:54:40;99403.22;;;21.29
62611;BMP280;48683;48.084;17.272;2023-07-02T02:57:06;99407.00;;;21.32
62611;BMP280;48683;48.084;17.272;2023-07-02T02:59:31;99393.94;;;21.41
62611;BMP280;48683;48.084;17.272;2023-07-02T03:01:56;99396.28;;;21.28
62611;BMP280;48683;48.084;17.272;2023-07-02T03:04:22;99404.81;;;21.36
62611;BMP280;48683;48.084;17.272;2023-07-02T03:06:48;99404.81;;;21.36
62611;BMP280;48683;48.084;17.272;2023-07-02T03:09:14;99415.72;;;21.36
62611;BMP280;48683;48.084;17.272;2023-07-02T03:11:39;99403.28;;;21.35
62611;BMP280;48683;48.084;17.272;2023-07-02T03:14:04;99413.94;;;21.33
62611;BMP280;48683;48.084;17.272;2023-07-02T03:16:30;99413.47;;;21.34
62611;BMP280;48683;48.084;17.272;2023-07-02T03:18:55;99421.72;;;21.40
62611;BMP280;48683;48.084;17.272;2023-07-02T03:21:20;99426.69;;;21.41
62611;BMP280;48683;48.084;17.272;2023-07-02T03:23:46;99427.75;;;21.44
62611;BMP280;48683;48.084;17.272;2023-07-02T03:26:11;99428.88;;;21.37
62611;BMP280;48683;48.084;17.272;2023-07-02T03:28:36;99427.91;;;21.40
62611;BMP280;48683;48.084;17.272;2023-07-02T03:31:01;99427.25;;;21.45
62611;BMP280;48683;48.084;17.272;2023-07-02T03:33:27;99417.50;;;21.39
62611;BMP280;48683;48.084;17.272;2023-07-02T03:35:52;99423.50;;;21.43
62611;BMP280;48683;48.084;17.272;2023-07-02T03:38:17;99432.78;;;21.51
62611;BMP280;48683;48.084;17.272;2023-07-02T03:40:43;99434.41;;;21.43
62611;BMP280;48683;48.084;17.272;2023-07-02T03:43:08;99428.41;;;21.39
62611;BMP280;48683;48.084;17.272;2023-07-02T03:45:33;99441.78;;;21.57
62611;BMP280;48683;48.084;17.272;2023-07-02T03:47:58;99439.81;;;21.57
62611;BMP280;48683;48.084;17.272;2023-07-02T03:50:24;99435.38;;;21.60
62611;BMP280;48683;48.084;17.272;2023-07-02T03:52:49;99443.34;;;21.63
62611;BMP280;48683;48.084;17.272;2023-07-02T03:55:14;99430.19;;;21.62
62611;BMP280;48683;48.084;17.272;2023-07-02T03:57:40;99448.09;;;21.63
62611;BMP280;48683;48.084;17.272;2023-07-02T04:00:06;99434.91;;;21.61
62611;BMP280;48683;48.084;17.272;2023-07-02T04:02:33;99452.28;;;21.64
62611;BMP280;48683;48.084;17.272;2023-07-02T04:04:58;99445.56;;;21.59
62611;BMP280;48683;48.084;17.272;2023-07-02T04:07:23;99453.34;;;21.66
62611;BMP280;48683;48.084;17.272;2023-07-02T04:09:48;99452.25;;;21.58
62611;BMP280;48683;48.084;17.272;2023-07-02T04:12:14;99459.00;;;21.63
62611;BMP280;48683;48.084;17.272;2023-07-02T04:14:39;99465.06;;;21.72
62611;BMP280;48683;48.084;17.272;2023-07-02T04:17:05;99453.53;;;21.63
62611;BMP280;48683;48.084;17.272;2023-07-02T04:19:30;99460.81;;;21.71
62611;BMP280;48683;48.084;17.272;2023-07-02T04:21:55;99460.16;;;21.76
62611;BMP280;48683;48.084;17.272;2023-07-02T04:24:21;99456.75;;;21.82
62611;BMP280;48683;48.084;17.272;2023-07-02T04:26:46;99464.44;;;21.83
62611;BMP280;48683;48.084;17.272;2023-07-02T04:29:11;99471.56;;;21.95
62611;BMP280;48683;48.084;17.272;2023-07-02T04:31:37;99481.34;;;22.02
62611;BMP280;48683;48.084;17.272;2023-07-02T04:34:03;99476.25;;;22.15
62611;BMP280;48683;48.084;17.272;2023-07-02T04:36:30;99478.63;;;22.28
62611;BMP280;48683;48.084;17.272;2023-07-02T04:38:56;99477.72;;;22.36
62611;BMP280;48683;48.084;17.272;2023-07-02T04:41:21;99485.91;;;22.36
62611;BMP280;48683;48.084;17.272;2023-07-02T04:43:46;99488.00;;;22.47
62611;BMP280;48683;48.084;17.272;2023-07-02T04:46:12;99489.22;;;22.46
62611;BMP280;48683;48.084;17.272;2023-07-02T04:48:38;99486.50;;;22.46
62611;BMP280;48683;48.084;17.272;2023-07-02T04:51:04;99491.16;;;22.65
62611;BMP280;48683;48.084;17.272;2023-07-02T04:53:29;99499.47;;;22.77
62611;BMP280;48683;48.084;17.272;2023-07-02T04:55:54;99498.31;;;22.83
62611;BMP280;48683;48.084;17.272;2023-07-02T04:58:21;99497.69;;;22.99
62611;BMP280;48683;48.084;17.272;2023-07-02T05:00:47;99494.19;;;22.99
62611;BMP280;48683;48.084;17.272;2023-07-02T05:03:12;99495.78;;;23.11
62611;BMP280;48683;48.084;17.272;2023-07-02T05:05:37;99501.28;;;23.16
62611;BMP280;48683;48.084;17.272;2023-07-02T05:08:03;99496.59;;;23.23
62611;BMP280;48683;48.084;17.272;2023-07-02T05:10:29;99495.81;;;23.16
62611;BMP280;48683;48.084;17.272;2023-07-02T05:12:55;99495.41;;;23.29
62611;BMP280;48683;48.084;17.272;2023-07-02T05:15:20;99501.22;;;23.42
62611;BMP280;48683;48.084;17.272;2023-07-02T05:17:46;99501.97;;;23.43
62611;BMP280;48683;48.084;17.272;2023-07-02T05:20:11;99505.38;;;23.32
62611;BMP280;48683;48.084;17.272;2023-07-02T05:22:37;99511.69;;;23.44
62611;BMP280;48683;48.084;17.272;2023-07-02T05:25:02;99507.06;;;23.61
62611;BMP280;48683;48.084;17.272;2023-07-02T05:27:28;99509.63;;;23.76
62611;BMP280;48683;48.084;17.272;2023-07-02T05:29:53;99517.69;;;23.96
62611;BMP280;48683;48.084;17.272;2023-07-02T05:32:19;99518.97;;;24.11
62611;BMP280;48683;48.084;17.272;2023-07-02T05:34:44;99512.47;;;24.09
62611;BMP280;48683;48.084;17.272;2023-07-02T05:37:09;99514.03;;;24.21
62611;BMP280;48683;48.084;17.272;2023-07-02T05:39:35;99518.31;;;24.28
62611;BMP280;48683;48.084;17.272;2023-07-02T05:42:00;99525.59;;;24.64
62611;BMP280;48683;48.084;17.272;2023-07-02T05:44:25;99523.59;;;24.70
62611;BMP280;48683;48.084;17.272;2023-07-02T05:46:51;99527.31;;;24.56
62611;BMP280;48683;48.084;17.272;2023-07-02T05:49:16;99530.59;;;24.77
62611;BMP280;48683;48.084;17.272;2023-07-02T05:51:41;99526.09;;;24.79
62611;BMP280;48683;48.084;17.272;2023-07-02T05:54:06;99521.13;;;24.94
62611;BMP280;48683;48.084;17.272;2023-07-02T05:56:32;99525.66;;;24.97
62611;BMP280;48683;48.084;17.272;2023-07-02T05:58:57;99512.66;;;24.98
62611;BMP280;48683;48.084;17.272;2023-07-02T06:01:22;99528.63;;;25.16
62611;BMP280;48683;48.084;17.272;2023-07-02T06:03:51;99518.91;;;25.04
62611;BMP280;48683;48.084;17.272;2023-07-02T06:06:17;99530.13;;;25.12
62611;BMP280;48683;48.084;17.272;2023-07-02T06:08:42;99530.84;;;25.34
62611;BMP280;48683;48.084;17.272;2023-07-02T06:11:09;99529.59;;;25.19
62611;BMP280;48683;48.084;17.272;2023-07-02T06:13:35;99525.13;;;25.16
62611;BMP280;48683;48.084;17.272;2023-07-02T06:16:00;99526.84;;;25.35
62611;BMP280;48683;48.084;17.272;2023-07-02T06:18:25;99527.13;;;25.21
62611;BMP280;48683;48.084;17.272;2023-07-02T06:20:51;99537.84;;;25.35
62611;BMP280;48683;48.084;17.272;2023-07-02T06:23:16;99538.78;;;25.49
62611;BMP280;48683;48.084;17.272;2023-07-02T06:25:41;99542.28;;;25.49
62611;BMP280;48683;48.084;17.272;2023-07-02T06:28:07;99531.13;;;25.20
62611;BMP280;48683;48.084;17.272;2023-07-02T06:30:32;99529.63;;;24.96
62611;BMP280;48683;48.084;17.272;2023-07-02T06:32:57;99531.59;;;25.24
62611;BMP280;48683;48.084;17.272;2023-07-02T06:35:23;99543.06;;;25.44
62611;BMP280;48683;48.084;17.272;2023-07-02T06:37:48;99555.53;;;25.68
62611;BMP280;48683;48.084;17.272;2023-07-02T06:40:14;99545.03;;;25.72
62611;BMP280;48683;48.084;17.272;2023-07-02T06:42:40;99544.28;;;25.71
62611;BMP280;48683;48.084;17.272;2023-07-02T06:45:06;99537.06;;;25.51
62611;BMP280;48683;48.084;17.272;2023-07-02T06:47:31;99541.81;;;25.34
62611;BMP280;48683;48.084;17.272;2023-07-02T06:49:57;99552.09;;;25.00
62611;BMP280;48683;48.084;17.272;2023-07-02T06:52:23;99557.53;;;24.73
62611;BMP280;48683;48.084;17.272;2023-07-02T06:54:49;99553.78;;;24.70
62611;BMP280;48683;48.084;17.272;2023-07-02T06:57:14;99553.03;;;24.64
62611;BMP280;48683;48.084;17.272;2023-07-02T06:59:40;99564.47;;;24.57
62611;BMP280;48683;48.084;17.272;2023-07-02T07:02:06;99569.75;;;24.83
62611;BMP280;48683;48.084;17.272;2023-07-02T07:04:31;99560.00;;;24.59
62611;BMP280;48683;48.084;17.272;2023-07-02T07:06:56;99578.53;;;24.92
62611;BMP280;48683;48.084;17.272;2023-07-02T07:09:22;99571.22;;;24.67
62611;BMP280;48683;48.084;17.272;2023-07-02T07:11:47;99577.97;;;24.55
62611;BMP280;48683;48.084;17.272;2023-07-02T07:14:13;99580.91;;;24.46
62611;BMP280;48683;48.084;17.272;2023-07-02T07:16:38;99576.34;;;24.21
62611;BMP280;48683;48.084;17.272;2023-07-02T07:19:04;99584.72;;;24.06
62611;BMP280;48683;48.084;17.272;2023-07-02T07:21:29;99614.38;;;24.72
62611;BMP280;48683;48.084;17.272;2023-07-02T07:23:55;99603.34;;;24.39
62611;BMP280;48683;48.084;17.272;2023-07-02T07:26:20;99600.84;;;24.41
62611;BMP280;48683;48.084;17.272;2023-07-02T07:28:45;99595.84;;;24.34
62611;BMP280;48683;48.084;17.272;2023-07-02T07:31:11;99602.31;;;24.31
62611;BMP280;48683;48.084;17.272;2023-07-02T07:33:36;99608.06;;;24.38
62611;BMP280;48683;48.084;17.272;2023-07-02T07:36:01;99608.28;;;24.24
62611;BMP280;48683;48.084;17.272;2023-07-02T07:38:27;99600.19;;;24.09
62611;BMP280;48683;48.084;17.272;2023-07-02T07:40:52;99616.47;;;24.18
62611;BMP280;48683;48.084;17.272;2023-07-02T07:43:17;99609.78;;;24.30
62611;BMP280;48683;48.084;17.272;2023-07-02T07:45:43;99615.97;;;24.25
62611;BMP280;48683;48.084;17.272;2023-07-02T07:48:08;99614.41;;;24.13
62611;BMP280;48683;48.084;17.272;2023-07-02T07:50:34;99601.28;;;24.28
62611;BMP280;48683;48.084;17.272;2023-07-02T07:52:59;99614.28;;;24.33
62611;BMP280;48683;48.084;17.272;2023-07-02T07:55:24;99614.31;;;24.44
62611;BMP280;48683;48.084;17.272;2023-07-02T07:57:50;99609.06;;;24.41
62611;BMP280;48683;48.084;17.272;2023-07-02T08:00:15;99613.53;;;24.33
62611;BMP280;48683;48.084;17.272;2023-07-02T08:02:42;99612.75;;;24.27
62611;BMP280;48683;48.084;17.272;2023-07-02T08:05:08;99610.41;;;24.08
62611;BMP280;48683;48.084;17.272;2023-07-02T08:07:33;99620.63;;;24.13
62611;BMP280;48683;48.084;17.272;2023-07-02T08:09:59;99622.94;;;24.15
62611;BMP280;48683;48.084;17.272;2023-07-02T08:12:25;99622.22;;;24.26
62611;BMP280;48683;48.084;17.272;2023-07-02T08:14:55;99626.13;;;24.13
62611;BMP280;48683;48.084;17.272;2023-07-02T08:17:20;99625.91;;;24.17
62611;BMP280;48683;48.084;17.272;2023-07-02T08:19:45;99617.59;;;24.00
62611;BMP280;48683;48.084;17.272;2023-07-02T08:22:11;99618.41;;;24.12
62611;BMP280;48683;48.084;17.272;2023-07-02T08:24:37;99626.91;;;24.14
62611;BMP280;48683;48.084;17.272;2023-07-02T08:27:02;99632.22;;;24.34
62611;BMP280;48683;48.084;17.272;2023-07-02T08:29:29;99626.13;;;24.73
62611;BMP280;48683;48.084;17.272;2023-07-02T08:31:55;99627.34;;;24.66
62611;BMP280;48683;48.084;17.272;2023-07-02T08:34:20;99624.09;;;24.68
62611;BMP280;48683;48.084;17.272;2023-07-02T08:36:46;99619.63;;;24.65
62611;BMP280;48683;48.084;17.272;2023-07-02T08:39:11;99623.84;;;24.60
62611;BMP280;48683;48.084;17.272;2023-07-02T08:41:47;99629.13;;;24.80
62611;BMP280;48683;48.084;17.272;2023-07-02T08:44:14;99631.94;;;25.02
62611;BMP280;48683;48.084;17.272;2023-07-02T08:46:40;99637.41;;;25.02
62611;BMP280;48683;48.084;17.272;2023-07-02T08:49:06;99643.16;;;25.10
62611;BMP280;48683;48.084;17.272;2023-07-02T08:51:32;99629.22;;;25.25
62611;BMP280;48683;48.084;17.272;2023-07-02T08:53:57;99632.72;;;25.36
62611;BMP280;48683;48.084;17.272;2023-07-02T08:56:22;99618.72;;;25.34
62611;BMP280;48683;48.084;17.272;2023-07-02T08:58:48;99617.47;;;25.24
62611;BMP280;48683;48.084;17.272;2023-07-02T09:01:14;99612.50;;;25.56
62611;BMP280;48683;48.084;17.272;2023-07-02T09:03:40;99610.22;;;25.71
62611;BMP280;48683;48.084;17.272;2023-07-02T09:06:07;99607.16;;;26.03
62611;BMP280;48683;48.084;17.272;2023-07-02T09:08:33;99610.38;;;26.64
62611;BMP280;48683;48.084;17.272;2023-07-02T09:11:12;99609.06;;;26.76
62611;BMP280;48683;48.084;17.272;2023-07-02T09:13:48;99609.88;;;27.07
62611;BMP280;48683;48.084;17.272;2023-07-02T09:16:23;99593.81;;;26.75
62611;BMP280;48683;48.084;17.272;2023-07-02T09:19:00;99605.78;;;26.78
62611;BMP280;48683;48.084;17.272;2023-07-02T09:26:53;99615.91;;;26.59
62611;BMP280;48683;48.084;17.272;2023-07-02T09:29:31;99616.22;;;26.96
62611;BMP280;48683;48.084;17.272;2023-07-02T09:32:02;99611.59;;;27.10
62611;BMP280;48683;48.084;17.272;2023-07-02T09:34:32;99604.63;;;27.38
62611;BMP280;48683;48.084;17.272;2023-07-02T09:36:58;99615.63;;;27.68
62611;BMP280;48683;48.084;17.272;2023-07-02T09:39:31;99606.19;;;27.82
62611;BMP280;48683;48.084;17.272;2023-07-02T09:41:58;99597.59;;;27.67
62611;BMP280;48683;48.084;17.272;2023-07-02T09:44:31;99600.75;;;27.53
62611;BMP280;48683;48.084;17.272;2023-07-02T09:47:07;99592.47;;;27.77
62611;BMP280;48683;48.084;17.272;2023-07-02T09:52:31;99594.19;;;27.26
62611;BMP280;48683;48.084;17.272;2023-07-02T09:54:58;99590.41;;;26.99
62611;BMP280;48683;48.084;17.272;2023-07-02T09:57:23;99591.94;;;26.95
62611;BMP280;48683;48.084;17.272;2023-07-02T09:59:49;99596.09;;;27.36
62611;BMP280;48683;48.084;17.272;2023-07-02T10:02:15;99598.09;;;27.36
62611;BMP280;48683;48.084;17.272;2023-07-02T10:04:43;99596.56;;;27.46
62611;BMP280;48683;48.084;17.272;2023-07-02T10:07:09;99599.03;;;27.44
62611;BMP280;48683;48.084;17.272;2023-07-02T10:09:53;99598.16;;;27.60
62611;BMP280;48683;48.084;17.272;2023-07-02T10:12:22;99595.66;;;27.62
62611;BMP280;48683;48.084;17.272;2023-07-02T10:14:49;99586.22;;;27.76
62611;BMP280;48683;48.084;17.272;2023-07-02T10:17:34;99581.28;;;27.94
62611;BMP280;48683;48.084;17.272;2023-07-02T10:20:07;99587.50;;;28.18
62611;BMP280;48683;48.084;17.272;2023-07-02T10:22:47;99585.78;;;28.34
62611;BMP280;48683;48.084;17.272;2023-07-02T10:25:24;99594.91;;;28.48
62611;BMP280;48683;48.084;17.272;2023-07-02T10:27:49;99582.44;;;28.22
62611;BMP280;48683;48.084;17.272;2023-07-02T10:30:14;99584.84;;;28.13
62611;BMP280;48683;48.084;17.272;2023-07-02T10:32:40;99580.97;;;27.97
62611;BMP280;48683;48.084;17.272;2023-07-02T10:35:18;99582.78;;;28.13
62611;BMP280;48683;48.084;17.272;2023-07-02T10:37:44;99583.16;;;28.04
62611;BMP280;48683;48.084;17.272;2023-07-02T10:40:10;99576.16;;;27.79
62611;BMP280;48683;48.084;17.272;2023-07-02T10:42:50;99586.41;;;28.27
62611;BMP280;48683;48.084;17.272;2023-07-02T10:45:16;99587.50;;;28.37
62611;BMP280;48683;48.084;17.272;2023-07-02T10:47:42;99579.31;;;28.50
62611;BMP280;48683;48.084;17.272;2023-07-02T10:50:20;99579.31;;;28.50
62611;BMP280;48683;48.084;17.272;2023-07-02T10:52:47;99579.06;;;28.86
62611;BMP280;48683;48.084;17.272;2023-07-02T10:55:23;99572.06;;;28.66
62611;BMP280;48683;48.084;17.272;2023-07-02T10:57:49;99579.25;;;28.56
62611;BMP280;48683;48.084;17.272;2023-07-02T11:00:18;99578.59;;;29.00
62611;BMP280;48683;48.084;17.272;2023-07-02T11:02:44;99573.09;;;29.13
62611;BMP280;48683;48.084;17.272;2023-07-02T11:05:10;99570.94;;;29.38
62611;BMP280;48683;48.084;17.272;2023-07-02T11:07:40;99562.06;;;29.27
62611;BMP280;48683;48.084;17.272;2023-07-02T11:10:07;99559.69;;;29.62
62611;BMP280;48683;48.084;17.272;2023-07-02T11:12:32;99555.09;;;29.39
62611;BMP280;48683;48.084;17.272;2023-07-02T11:15:11;99571.16;;;29.40
62611;BMP280;48683;48.084;17.272;2023-07-02T11:17:36;99572.59;;;28.83
62611;BMP280;48683;48.084;17.272;2023-07-02T11:20:02;99590.13;;;28.29
62611;BMP280;48683;48.084;17.272;2023-07-02T11:22:34;99593.09;;;27.89
62611;BMP280;48683;48.084;17.272;2023-07-02T11:25:16;99598.78;;;27.48
62611;BMP280;48683;48.084;17.272;2023-07-02T11:27:43;99586.47;;;27.54
62611;BMP280;48683;48.084;17.272;2023-07-02T11:30:09;99588.91;;;27.28
62611;BMP280;48683;48.084;17.272;2023-07-02T11:32:55;99588.75;;;27.45
62611;BMP280;48683;48.084;17.272;2023-07-02T11:35:21;99589.28;;;27.43
62611;BMP280;48683;48.084;17.272;2023-07-02T11:37:48;99599.38;;;27.89
62611;BMP280;48683;48.084;17.272;2023-07-02T11:40:19;99587.06;;;28.14
62611;BMP280;48683;48.084;17.272;2023-07-02T11:42:44;99590.94;;;28.43
62611;BMP280;48683;48.084;17.272;2023-07-02T11:45:10;99588.09;;;28.49
62611;BMP280;48683;48.084;17.272;2023-07-02T11:47:35;99597.59;;;28.72
62611;BMP280;48683;48.084;17.272;2023-07-02T11:50:02;99584.84;;;28.69
62611;BMP280;48683;48.084;17.272;2023-07-02T11:52:28;99584.53;;;29.04
62611;BMP280;48683;48.084;17.272;2023-07-02T11:54:53;99568.53;;;28.84
62611;BMP280;48683;48.084;17.272;2023-07-02T11:57:19;99575.44;;;29.22
62611;BMP280;48683;48.084;17.272;2023-07-02T11:59:45;99563.44;;;29.20
62611;BMP280;48683;48.084;17.272;2023-07-02T12:02:10;99577.75;;;29.37
62611;BMP280;48683;48.084;17.272;2023-07-02T12:04:35;99566.81;;;29.45
62611;BMP280;48683;48.084;17.272;2023-07-02T12:07:01;99571.91;;;29.41
62611;BMP280;48683;48.084;17.272;2023-07-02T12:09:28;99561.69;;;29.36
62611;BMP280;48683;48.084;17.272;2023-07-02T12:11:54;99574.13;;;28.97
62611;BMP280;48683;48.084;17.272;2023-07-02T12:14:19;99579.84;;;28.30
62611;BMP280;48683;48.084;17.272;2023-07-02T12:16:44;99579.00;;;28.16
62611;BMP280;48683;48.084;17.272;2023-07-02T12:19:10;99580.78;;;28.14
62611;BMP280;48683;48.084;17.272;2023-07-02T12:21:35;99582.94;;;28.21
62611;BMP280;48683;48.084;17.272;2023-07-02T12:24:00;99589.59;;;27.88
62611;BMP280;48683;48.084;17.272;2023-07-02T12:26:26;99591.63;;;27.33
62611;BMP280;48683;48.084;17.272;2023-07-02T12:28:51;99587.91;;;27.31
62611;BMP280;48683;48.084;17.272;2023-07-02T12:31:16;99596.00;;;27.18
62611;BMP280;48683;48.084;17.272;2023-07-02T12:33:41;99597.41;;;27.30
62611;BMP280;48683;48.084;17.272;2023-07-02T12:36:07;99603.41;;;27.34
62611;BMP280;48683;48.084;17.272;2023-07-02T12:38:32;99608.75;;;27.21
62611;BMP280;48683;48.084;17.272;2023-07-02T12:40:58;99597.41;;;27.00
62611;BMP280;48683;48.084;17.272;2023-07-02T12:43:23;99604.97;;;26.94
62611;BMP280;48683;48.084;17.272;2023-07-02T12:45:49;99595.19;;;26.93
62611;BMP280;48683;48.084;17.272;2023-07-02T12:48:14;99595.19;;;26.93
62611;BMP280;48683;48.084;17.272;2023-07-02T12:50:40;99589.00;;;26.87
62611;BMP280;48683;48.084;17.272;2023-07-02T12:53:05;99595.47;;;26.89
62611;BMP280;48683;48.084;17.272;2023-07-02T12:55:31;99596.72;;;27.24
62611;BMP280;48683;48.084;17.272;2023-07-02T12:57:56;99602.13;;;27.65
62611;BMP280;48683;48.084;17.272;2023-07-02T13:00:22;99606.94;;;27.59
62611;BMP280;48683;48.084;17.272;2023-07-02T13:02:49;99613.28;;;27.78
62611;BMP280;48683;48.084;17.272;2023-07-02T13:05:14;99602.63;;;28.12
62611;BMP280;48683;48.084;17.272;2023-07-02T13:07:40;99590.81;;;28.17
62611;BMP280;48683;48.084;17.272;2023-07-02T13:10:06;99594.53;;;28.38
62611;BMP280;48683;48.084;17.272;2023-07-02T13:12:31;99575.59;;;28.48
62611;BMP280;48683;48.084;17.272;2023-07-02T13:14:56;99589.69;;;28.63
62611;BMP280;48683;48.084;17.272;2023-07-02T13:17:22;99586.16;;;28.62
62611;BMP280;48683;48.084;17.272;2023-07-02T13:19:47;99580.50;;;28.55
62611;BMP280;48683;48.084;17.272;2023-07-02T13:22:13;99580.50;;;28.55
62611;BMP280;48683;48.084;17.272;2023-07-02T13:24:39;99575.44;;;28.59
62611;BMP280;48683;48.084;17.272;2023-07-02T13:27:06;99585.41;;;28.81
62611;BMP280;48683;48.084;17.272;2023-07-02T13:29:33;99573.31;;;28.84
62611;BMP280;48683;48.084;17.272;2023-07-02T13:31:58;99574.25;;;29.05
62611;BMP280;48683;48.084;17.272;2023-07-02T13:34:24;99557.72;;;28.86
62611;BMP280;48683;48.084;17.272;2023-07-02T13:36:49;99563.00;;;28.84
62611;BMP280;48683;48.084;17.272;2023-07-02T13:39:14;99567.91;;;28.91
62611;BMP280;48683;48.084;17.272;2023-07-02T13:41:40;99567.28;;;29.30
62611;BMP280;48683;48.084;17.272;2023-07-02T13:44:05;99576.44;;;29.38
62611;BMP280;48683;48.084;17.272;2023-07-02T13:46:30;99554.44;;;29.46
62611;BMP280;48683;48.084;17.272;2023-07-02T13:48:56;99553.03;;;29.26
62611;BMP280;48683;48.084;17.272;2023-07-02T13:51:21;99571.66;;;29.39
62611;BMP280;48683;48.084;17.272;2023-07-02T13:53:46;99573.69;;;29.38
62611;BMP280;48683;48.084;17.272;2023-07-02T13:56:12;99577.44;;;29.41
62611;BMP280;48683;48.084;17.272;2023-07-02T14:01:21;99576.13;;;29.29
62611;BMP280;48683;48.084;17.272;2023-07-02T14:03:46;99577.66;;;29.11
62611;BMP280;48683;48.084;17.272;2023-07-02T14:06:12;99575.94;;;28.76